sensor_id;sensor_type;location;lat;lon;timestamp;pressure;altitude;pressure_sealevel;temperature;humidity
66857;BME280;53766;50.280;19.160;2024-03-07T00:00:13;98970.72;;;16.95;49.61
66857;BME280;53766;50.280;19.160;2024-03-07T00:03:06;98969.03;;;16.94;49.51
66857;BME280;53766;50.280;19.160;2024-03-07T00:05:33;98975.22;;;16.94;49.52
66857;BME280;53766;50.280;19.160;2024-03-07T00:08:01;98972.72;;;16.93;49.45
66857;BME280;53766;50.280;19.160;2024-03-07T00:10:28;98967.41;;;16.93;49.58
66857;BME280;53766;50.280;19.160;2024-03-07T00:12:56;98979.88;;;16.92;49.55
66857;BME280;53766;50.280;19.160;2024-03-07T00:15:23;98972.72;;;16.93;49.65
66857;BME280;53766;50.280;19.160;2024-03-07T00:17:51;98973.56;;;16.93;49.50
66857;BME280;53766;50.280;19.160;2024-03-07T00:20:19;98976.22;;;16.93;49.50
66857;BME280;53766;50.280;19.160;2024-03-07T00:22:48;98978.06;;;16.93;49.60
66857;BME280;53766;50.280;19.160;2024-03-07T00:25:15;98975.56;;;16.91;49.66
66857;BME280;53766;50.280;19.160;2024-03-07T00:27:48;98971.06;;;16.92;49.65
66857;BME280;53766;50.280;19.160;2024-03-07T00:30:15;98967.75;;;16.90;49.51
66857;BME280;53766;50.280;19.160;2024-03-07T00:32:47;98974.75;;;16.91;49.55
66857;BME280;53766;50.280;19.160;2024-03-07T00:35:15;98962.44;;;16.90;49.57
66857;BME280;53766;50.280;19.160;2024-03-07T00:37:44;98965.94;;;16.90;49.61
66857;BME280;53766;50.280;19.160;2024-03-07T00:40:12;98964.09;;;16.91;49.70
66857;BME280;53766;50.280;19.160;2024-03-07T00:42:40;98965.09;;;16.90;49.58
66857;BME280;53766;50.280;19.160;2024-03-07T00:45:07;98962.44;;;16.90;49.68
66857;BME280;53766;50.280;19.160;2024-03-07T00:47:35;98960.78;;;16.89;49.57
66857;BME280;53766;50.280;19.160;2024-03-07T00:50:03;98966.13;;;16.89;49.66
66857;BME280;53766;50.280;19.160;2024-03-07T00:52:30;98961.63;;;16.89;49.69
66857;BME280;53766;50.280;19.160;2024-03-07T00:54:59;98964.47;;;16.88;49.62
66857;BME280;53766;50.280;19.160;2024-03-07T00:57:27;98961.81;;;16.88;49.64
66857;BME280;53766;50.280;19.160;2024-03-07T00:59:54;98957.47;;;16.86;49.56
66857;BME280;53766;50.280;19.160;2024-03-07T01:02:24;98953.19;;;16.85;49.71
66857;BME280;53766;50.280;19.160;2024-03-07T01:04:53;98951.34;;;16.86;49.57
66857;BME280;53766;50.280;19.160;2024-03-07T01:07:23;98956.66;;;16.86;49.64
66857;BME280;53766;50.280;19.160;2024-03-07T01:09:51;98955.84;;;16.85;49.58
66857;BME280;53766;50.280;19.160;2024-03-07T01:12:19;98956.66;;;16.86;49.61
66857;BME280;53766;50.280;19.160;2024-03-07T01:14:49;98956.66;;;16.86;49.67
66857;BME280;53766;50.280;19.160;2024-03-07T01:17:17;98958.31;;;16.87;49.52
66857;BME280;53766;50.280;19.160;2024-03-07T01:19:44;98959.31;;;16.86;49.62
66857;BME280;53766;50.280;19.160;2024-03-07T01:22:12;98953.19;;;16.85;49.43
66857;BME280;53766;50.280;19.160;2024-03-07T01:24:39;98953.19;;;16.85;49.51
66857;BME280;53766;50.280;19.160;2024-03-07T01:27:07;98949.69;;;16.85;49.58
66857;BME280;53766;50.280;19.160;2024-03-07T01:29:35;98950.53;;;16.85;49.61
66857;BME280;53766;50.280;19.160;2024-03-07T01:32:02;98952.16;;;16.86;49.65
66857;BME280;53766;50.280;19.160;2024-03-07T01:34:30;98951.34;;;16.86;49.54
66857;BME280;53766;50.280;19.160;2024-03-07T01:36:58;98951.34;;;16.86;49.68
66857;BME280;53766;50.280;19.160;2024-03-07T01:39:25;98949.69;;;16.85;49.47
66857;BME280;53766;50.280;19.160;2024-03-07T01:41:53;98950.53;;;16.85;49.54
66857;BME280;53766;50.280;19.160;2024-03-07T01:44:21;98944.34;;;16.85;49.64
66857;BME280;53766;50.280;19.160;2024-03-07T01:46:49;98949.69;;;16.85;49.61
66857;BME280;53766;50.280;19.160;2024-03-07T01:49:18;98945.22;;;16.85;49.60
66857;BME280;53766;50.280;19.160;2024-03-07T01:51:46;98946.19;;;16.84;49.53
66857;BME280;53766;50.280;19.160;2024-03-07T01:54:13;98951.50;;;16.84;49.63
66857;BME280;53766;50.280;19.160;2024-03-07T01:56:41;98944.56;;;16.83;49.58
66857;BME280;53766;50.280;19.160;2024-03-07T01:59:09;98945.56;;;16.82;49.55
66857;BME280;53766;50.280;19.160;2024-03-07T02:01:37;98942.72;;;16.84;49.62
66857;BME280;53766;50.280;19.160;2024-03-07T02:04:05;98936.56;;;16.83;49.58
66857;BME280;53766;50.280;19.160;2024-03-07T02:06:33;98937.56;;;16.82;49.67
66857;BME280;53766;50.280;19.160;2024-03-07T02:09:01;98943.53;;;16.84;49.52
66857;BME280;53766;50.280;19.160;2024-03-07T02:11:30;98933.72;;;16.85;49.56
66857;BME280;53766;50.280;19.160;2024-03-07T02:13:58;98946.03;;;16.86;49.50
66857;BME280;53766;50.280;19.160;2024-03-07T02:16:26;98933.72;;;16.85;49.73
66857;BME280;53766;50.280;19.160;2024-03-07T02:18:54;98931.25;;;16.83;49.55
66857;BME280;53766;50.280;19.160;2024-03-07T02:21:22;98930.22;;;16.84;49.56
66857;BME280;53766;50.280;19.160;2024-03-07T02:23:50;98934.91;;;16.82;49.75
66857;BME280;53766;50.280;19.160;2024-03-07T02:26:18;98930.63;;;16.81;49.35
66857;BME280;53766;50.280;19.160;2024-03-07T02:28:46;98935.94;;;16.81;49.62
66857;BME280;53766;50.280;19.160;2024-03-07T02:31:14;98927.94;;;16.81;49.61
66857;BME280;53766;50.280;19.160;2024-03-07T02:33:41;98933.28;;;16.81;49.57
66857;BME280;53766;50.280;19.160;2024-03-07T02:36:09;98918.31;;;16.80;49.64
66857;BME280;53766;50.280;19.160;2024-03-07T02:38:36;98927.94;;;16.81;49.56
66857;BME280;53766;50.280;19.160;2024-03-07T02:41:04;98927.94;;;16.81;49.63
66857;BME280;53766;50.280;19.160;2024-03-07T02:43:32;98932.41;;;16.81;49.58
66857;BME280;53766;50.280;19.160;2024-03-07T02:46:00;98933.28;;;16.81;49.61
66857;BME280;53766;50.280;19.160;2024-03-07T02:48:27;98927.09;;;16.81;49.61
66857;BME280;53766;50.280;19.160;2024-03-07T02:50:56;98923.78;;;16.79;49.65
66857;BME280;53766;50.280;19.160;2024-03-07T02:53:23;98928.25;;;16.78;49.64
66857;BME280;53766;50.280;19.160;2024-03-07T02:55:51;98932.75;;;16.78;49.50
66857;BME280;53766;50.280;19.160;2024-03-07T02:58:19;98930.94;;;16.78;49.53
66857;BME280;53766;50.280;19.160;2024-03-07T03:00:46;98930.94;;;16.78;49.50
66857;BME280;53766;50.280;19.160;2024-03-07T03:03:16;98930.94;;;16.78;49.59
66857;BME280;53766;50.280;19.160;2024-03-07T03:05:44;98933.59;;;16.78;49.52
66857;BME280;53766;50.280;19.160;2024-03-07T03:08:12;98932.75;;;16.78;49.61
66857;BME280;53766;50.280;19.160;2024-03-07T03:10:41;98938.09;;;16.78;49.66
66857;BME280;53766;50.280;19.160;2024-03-07T03:13:09;98934.59;;;16.77;49.58
66857;BME280;53766;50.280;19.160;2024-03-07T03:15:37;98926.81;;;16.76;49.67
66857;BME280;53766;50.280;19.160;2024-03-07T03:18:05;98928.63;;;16.75;49.54
66857;BME280;53766;50.280;19.160;2024-03-07T03:20:33;98928.63;;;16.75;49.61
66857;BME280;53766;50.280;19.160;2024-03-07T03:23:03;98933.97;;;16.75;49.61
66857;BME280;53766;50.280;19.160;2024-03-07T03:25:46;98932.28;;;16.74;49.63
66857;BME280;53766;50.280;19.160;2024-03-07T03:28:16;98939.28;;;16.75;49.46
66857;BME280;53766;50.280;19.160;2024-03-07T03:30:47;98937.59;;;16.74;49.70
66857;BME280;53766;50.280;19.160;2024-03-07T03:33:15;98932.28;;;16.74;49.55
66857;BME280;53766;50.280;19.160;2024-03-07T03:35:43;98926.16;;;16.74;49.47
66857;BME280;53766;50.280;19.160;2024-03-07T03:38:11;98926.16;;;16.74;49.56
66857;BME280;53766;50.280;19.160;2024-03-07T03:40:39;98933.31;;;16.73;49.66
66857;BME280;53766;50.280;19.160;2024-03-07T03:43:07;98930.66;;;16.73;49.42
66857;BME280;53766;50.280;19.160;2024-03-07T03:45:35;98935.97;;;16.73;49.43
66857;BME280;53766;50.280;19.160;2024-03-07T03:48:03;98930.66;;;16.73;49.59
66857;BME280;53766;50.280;19.160;2024-03-07T03:50:31;98933.31;;;16.73;49.43
66857;BME280;53766;50.280;19.160;2024-03-07T03:52:59;98938.81;;;16.72;49.49
66857;BME280;53766;50.280;19.160;2024-03-07T03:55:29;98944.94;;;16.72;49.60
66857;BME280;53766;50.280;19.160;2024-03-07T03:57:56;98939.63;;;16.72;49.41
66857;BME280;53766;50.280;19.160;2024-03-07T04:00:25;98934.50;;;16.71;49.54
66857;BME280;53766;50.280;19.160;2024-03-07T04:02:52;98936.34;;;16.70;49.55
66857;BME280;53766;50.280;19.160;2024-03-07T04:05:20;98941.66;;;16.70;49.41
66857;BME280;53766;50.280;19.160;2024-03-07T04:07:49;98946.13;;;16.70;49.36
66857;BME280;53766;50.280;19.160;2024-03-07T04:10:17;98944.31;;;16.70;49.53
66857;BME280;53766;50.280;19.160;2024-03-07T04:12:47;98946.97;;;16.70;49.44
66857;BME280;53766;50.280;19.160;2024-03-07T04:15:15;98945.16;;;16.71;49.43
66857;BME280;53766;50.280;19.160;2024-03-07T04:17:46;98946.97;;;16.70;49.45
66857;BME280;53766;50.280;19.160;2024-03-07T04:20:28;98948.63;;;16.71;49.41
66857;BME280;53766;50.280;19.160;2024-03-07T04:23:16;98940.81;;;16.70;49.29
66857;BME280;53766;50.280;19.160;2024-03-07T04:26:03;98943.69;;;16.68;49.36
66857;BME280;53766;50.280;19.160;2024-03-07T04:28:51;98949.66;;;16.70;49.44
66857;BME280;53766;50.280;19.160;2024-03-07T04:31:38;98949.81;;;16.69;49.45
66857;BME280;53766;50.280;19.160;2024-03-07T04:34:06;98949.00;;;16.68;49.33
66857;BME280;53766;50.280;19.160;2024-03-07T04:36:34;98944.50;;;16.69;49.42
66857;BME280;53766;50.280;19.160;2024-03-07T04:39:02;98946.97;;;16.70;49.43
66857;BME280;53766;50.280;19.160;2024-03-07T04:41:32;98947.97;;;16.69;49.35
66857;BME280;53766;50.280;19.160;2024-03-07T04:43:59;98941.84;;;16.69;49.39
66857;BME280;53766;50.280;19.160;2024-03-07T04:46:27;98947.97;;;16.69;49.34
66857;BME280;53766;50.280;19.160;2024-03-07T04:48:54;98944.50;;;16.69;49.31
66857;BME280;53766;50.280;19.160;2024-03-07T04:51:22;98955.94;;;16.69;49.28
66857;BME280;53766;50.280;19.160;2024-03-07T04:53:49;98950.63;;;16.69;49.26
66857;BME280;53766;50.280;19.160;2024-03-07T04:56:17;98953.47;;;16.67;49.35
66857;BME280;53766;50.280;19.160;2024-03-07T04:58:45;98955.94;;;16.69;49.28
66857;BME280;53766;50.280;19.160;2024-03-07T05:01:12;98963.94;;;16.69;49.23
66857;BME280;53766;50.280;19.160;2024-03-07T05:03:40;98963.13;;;16.69;49.31
66857;BME280;53766;50.280;19.160;2024-03-07T05:06:08;98964.94;;;16.68;49.39
66857;BME280;53766;50.280;19.160;2024-03-07T05:08:35;98962.28;;;16.68;49.32
66857;BME280;53766;50.280;19.160;2024-03-07T05:11:03;98967.78;;;16.66;49.30
66857;BME280;53766;50.280;19.160;2024-03-07T05:13:32;98967.78;;;16.66;49.28
66857;BME280;53766;50.280;19.160;2024-03-07T05:15:59;98976.75;;;16.65;49.37
66857;BME280;53766;50.280;19.160;2024-03-07T05:18:27;98966.97;;;16.66;49.44
66857;BME280;53766;50.280;19.160;2024-03-07T05:20:55;98970.63;;;16.65;49.33
66857;BME280;53766;50.280;19.160;2024-03-07T05:23:23;98973.44;;;16.63;49.40
66857;BME280;53766;50.280;19.160;2024-03-07T05:25:51;98984.09;;;16.63;49.16
66857;BME280;53766;50.280;19.160;2024-03-07T05:28:18;98985.75;;;16.64;49.39
66857;BME280;53766;50.280;19.160;2024-03-07T05:30:46;98984.94;;;16.64;49.37
66857;BME280;53766;50.280;19.160;2024-03-07T05:33:15;98996.38;;;16.64;49.30
66857;BME280;53766;50.280;19.160;2024-03-07T05:35:45;98990.25;;;16.64;49.36
66857;BME280;53766;50.280;19.160;2024-03-07T05:38:13;98985.75;;;16.64;49.55
66857;BME280;53766;50.280;19.160;2024-03-07T05:40:41;98990.25;;;16.64;49.60
66857;BME280;53766;50.280;19.160;2024-03-07T05:43:10;99000.88;;;16.64;49.73
66857;BME280;53766;50.280;19.160;2024-03-07T05:45:40;98997.38;;;16.63;49.71
66857;BME280;53766;50.280;19.160;2024-03-07T05:48:14;98999.22;;;16.63;49.77
66857;BME280;53766;50.280;19.160;2024-03-07T05:50:45;99005.34;;;16.63;49.80
66857;BME280;53766;50.280;19.160;2024-03-07T05:53:13;99001.88;;;16.63;49.81
66857;BME280;53766;50.280;19.160;2024-03-07T05:55:41;98989.41;;;16.63;49.95
66857;BME280;53766;50.280;19.160;2024-03-07T05:58:08;99001.22;;;16.61;50.06
66857;BME280;53766;50.280;19.160;2024-03-07T06:00:38;98999.41;;;16.61;49.85
66857;BME280;53766;50.280;19.160;2024-03-07T06:03:07;99001.22;;;16.61;49.99
66857;BME280;53766;50.280;19.160;2024-03-07T06:05:35;99001.06;;;16.62;49.81
66857;BME280;53766;50.280;19.160;2024-03-07T06:08:03;99009.84;;;16.63;49.92
66857;BME280;53766;50.280;19.160;2024-03-07T06:10:34;99015.19;;;16.63;50.01
66857;BME280;53766;50.280;19.160;2024-03-07T06:13:02;99004.53;;;16.63;50.13
66857;BME280;53766;50.280;19.160;2024-03-07T06:15:40;99006.38;;;16.62;50.15
66857;BME280;53766;50.280;19.160;2024-03-07T06:18:10;99008.22;;;16.62;50.14
66857;BME280;53766;50.280;19.160;2024-03-07T06:20:44;99002.91;;;16.62;50.09
66857;BME280;53766;50.280;19.160;2024-03-07T06:23:13;99010.06;;;16.61;50.13
66857;BME280;53766;50.280;19.160;2024-03-07T06:25:44;99012.72;;;16.61;49.90
66857;BME280;53766;50.280;19.160;2024-03-07T06:28:15;99006.53;;;16.61;50.09
66857;BME280;53766;50.280;19.160;2024-03-07T06:30:44;99011.03;;;16.60;50.23
66857;BME280;53766;50.280;19.160;2024-03-07T06:33:13;99011.22;;;16.59;50.33
66857;BME280;53766;50.280;19.160;2024-03-07T06:35:42;99011.22;;;16.59;50.21
66857;BME280;53766;50.280;19.160;2024-03-07T06:38:10;99008.56;;;16.59;50.30
66857;BME280;53766;50.280;19.160;2024-03-07T06:40:39;99006.91;;;16.58;50.21
66857;BME280;53766;50.280;19.160;2024-03-07T06:43:10;99016.53;;;16.59;50.18
66857;BME280;53766;50.280;19.160;2024-03-07T06:45:39;99017.56;;;16.58;50.20
66857;BME280;53766;50.280;19.160;2024-03-07T06:48:07;99017.56;;;16.58;50.26
66857;BME280;53766;50.280;19.160;2024-03-07T06:50:36;99014.91;;;16.58;50.06
66857;BME280;53766;50.280;19.160;2024-03-07T06:53:06;99018.38;;;16.58;50.18
66857;BME280;53766;50.280;19.160;2024-03-07T06:55:35;99021.84;;;16.59;50.14
66857;BME280;53766;50.280;19.160;2024-03-07T06:58:02;99017.56;;;16.58;50.08
66857;BME280;53766;50.280;19.160;2024-03-07T07:00:33;99017.56;;;16.58;50.07
66857;BME280;53766;50.280;19.160;2024-03-07T07:03:05;99007.72;;;16.58;50.12
66857;BME280;53766;50.280;19.160;2024-03-07T07:05:32;99013.22;;;16.57;50.16
66857;BME280;53766;50.280;19.160;2024-03-07T07:08:01;99021.19;;;16.57;50.06
66857;BME280;53766;50.280;19.160;2024-03-07T07:10:29;99022.88;;;16.58;50.24
66857;BME280;53766;50.280;19.160;2024-03-07T07:12:57;99015.88;;;16.57;50.10
66857;BME280;53766;50.280;19.160;2024-03-07T07:15:25;99014.06;;;16.57;49.99
66857;BME280;53766;50.280;19.160;2024-03-07T07:17:53;99015.88;;;16.57;50.12
66857;BME280;53766;50.280;19.160;2024-03-07T07:20:21;99017.56;;;16.58;50.16
66857;BME280;53766;50.280;19.160;2024-03-07T07:22:51;99023.69;;;16.58;49.99
66857;BME280;53766;50.280;19.160;2024-03-07T07:25:20;99028.19;;;16.58;50.06
66857;BME280;53766;50.280;19.160;2024-03-07T07:27:50;99017.56;;;16.58;50.14
66857;BME280;53766;50.280;19.160;2024-03-07T07:30:20;99028.19;;;16.58;50.13
66857;BME280;53766;50.280;19.160;2024-03-07T07:32:51;99013.22;;;16.57;50.22
66857;BME280;53766;50.280;19.160;2024-03-07T07:35:19;99024.72;;;16.57;50.10
66857;BME280;53766;50.280;19.160;2024-03-07T07:37:49;99025.53;;;16.58;49.95
66857;BME280;53766;50.280;19.160;2024-03-07T07:40:19;99027.38;;;16.57;50.22
66857;BME280;53766;50.280;19.160;2024-03-07T07:42:51;99029.00;;;16.58;50.29
66857;BME280;53766;50.280;19.160;2024-03-07T07:45:22;99021.84;;;16.59;50.23
66857;BME280;53766;50.280;19.160;2024-03-07T07:47:51;99022.69;;;16.59;50.36
66857;BME280;53766;50.280;19.160;2024-03-07T07:50:22;99026.19;;;16.60;50.33
66857;BME280;53766;50.280;19.160;2024-03-07T07:52:55;99023.53;;;16.60;50.55
66857;BME280;53766;50.280;19.160;2024-03-07T07:55:25;99026.34;;;16.58;50.33
66857;BME280;53766;50.280;19.160;2024-03-07T07:57:54;99026.19;;;16.60;50.26
66857;BME280;53766;50.280;19.160;2024-03-07T08:00:24;99019.19;;;16.59;50.36
66857;BME280;53766;50.280;19.160;2024-03-07T08:02:58;99027.00;;;16.60;50.35
66857;BME280;53766;50.280;19.160;2024-03-07T08:05:27;99021.84;;;16.59;50.38
66857;BME280;53766;50.280;19.160;2024-03-07T08:07:57;99027.00;;;16.60;50.38
66857;BME280;53766;50.280;19.160;2024-03-07T08:10:27;99026.19;;;16.60;50.30
66857;BME280;53766;50.280;19.160;2024-03-07T08:12:59;99031.50;;;16.60;50.67
66857;BME280;53766;50.280;19.160;2024-03-07T08:15:28;99035.16;;;16.59;50.31
66857;BME280;53766;50.280;19.160;2024-03-07T08:17:57;99031.50;;;16.60;50.40
66857;BME280;53766;50.280;19.160;2024-03-07T08:20:26;99031.50;;;16.60;50.36
66857;BME280;53766;50.280;19.160;2024-03-07T08:22:55;99032.50;;;16.59;50.30
66857;BME280;53766;50.280;19.160;2024-03-07T08:25:25;99031.50;;;16.60;50.39
66857;BME280;53766;50.280;19.160;2024-03-07T08:27:54;99032.31;;;16.60;50.70
66857;BME280;53766;50.280;19.160;2024-03-07T08:30:22;99041.31;;;16.59;50.36
66857;BME280;53766;50.280;19.160;2024-03-07T08:32:55;99037.81;;;16.59;50.30
66857;BME280;53766;50.280;19.160;2024-03-07T08:35:23;99035.16;;;16.59;50.30
66857;BME280;53766;50.280;19.160;2024-03-07T08:37:53;99035.16;;;16.59;50.30
66857;BME280;53766;50.280;19.160;2024-03-07T08:40:27;99040.47;;;16.59;50.34
66857;BME280;53766;50.280;19.160;2024-03-07T08:42:59;99045.78;;;16.59;50.23
66857;BME280;53766;50.280;19.160;2024-03-07T08:45:28;99040.47;;;16.59;50.40
66857;BME280;53766;50.280;19.160;2024-03-07T08:47:57;99047.44;;;16.60;50.23
66857;BME280;53766;50.280;19.160;2024-03-07T08:50:27;99039.66;;;16.58;50.19
66857;BME280;53766;50.280;19.160;2024-03-07T08:52:56;99041.47;;;16.58;50.29
66857;BME280;53766;50.280;19.160;2024-03-07T08:55:24;99049.47;;;16.58;50.20
66857;BME280;53766;50.280;19.160;2024-03-07T08:57:53;99044.16;;;16.58;50.24
66857;BME280;53766;50.280;19.160;2024-03-07T09:00:21;99048.81;;;16.56;50.15
66857;BME280;53766;50.280;19.160;2024-03-07T09:02:55;99046.81;;;16.58;50.20
66857;BME280;53766;50.280;19.160;2024-03-07T09:05:29;99046.81;;;16.58;50.06
66857;BME280;53766;50.280;19.160;2024-03-07T09:07:58;99047.78;;;16.57;50.14
66857;BME280;53766;50.280;19.160;2024-03-07T09:10:26;99054.78;;;16.58;50.17
66857;BME280;53766;50.280;19.160;2024-03-07T09:12:57;99049.47;;;16.58;50.40
66857;BME280;53766;50.280;19.160;2024-03-07T09:15:26;99053.97;;;16.57;50.05
66857;BME280;53766;50.280;19.160;2024-03-07T09:17:54;99053.97;;;16.57;50.03
66857;BME280;53766;50.280;19.160;2024-03-07T09:20:22;99053.09;;;16.57;50.05
66857;BME280;53766;50.280;19.160;2024-03-07T09:22:51;99053.97;;;16.57;49.97
66857;BME280;53766;50.280;19.160;2024-03-07T09:25:22;99071.56;;;16.58;49.87
66857;BME280;53766;50.280;19.160;2024-03-07T09:27:51;99065.41;;;16.58;50.04
66857;BME280;53766;50.280;19.160;2024-03-07T09:30:19;99063.56;;;16.58;50.01
66857;BME280;53766;50.280;19.160;2024-03-07T09:32:51;99058.44;;;16.57;49.90
66857;BME280;53766;50.280;19.160;2024-03-07T09:35:19;99074.38;;;16.57;49.97
66857;BME280;53766;50.280;19.160;2024-03-07T09:37:47;99073.56;;;16.56;49.93
66857;BME280;53766;50.280;19.160;2024-03-07T09:40:15;99074.38;;;16.57;49.81
66857;BME280;53766;50.280;19.160;2024-03-07T09:42:49;99082.19;;;16.58;49.54
66857;BME280;53766;50.280;19.160;2024-03-07T09:45:20;99085.66;;;16.59;49.84
66857;BME280;53766;50.280;19.160;2024-03-07T09:47:49;99080.56;;;16.57;49.76
66857;BME280;53766;50.280;19.160;2024-03-07T09:50:20;99079.69;;;16.57;49.81
66857;BME280;53766;50.280;19.160;2024-03-07T09:52:54;99085.88;;;16.57;49.67
66857;BME280;53766;50.280;19.160;2024-03-07T09:55:24;99088.34;;;16.59;49.74
66857;BME280;53766;50.280;19.160;2024-03-07T09:57:54;99092.00;;;16.58;49.68
66857;BME280;53766;50.280;19.160;2024-03-07T10:00:25;99085.66;;;16.59;49.57
66857;BME280;53766;50.280;19.160;2024-03-07T10:03:02;99093.66;;;16.59;49.53
66857;BME280;53766;50.280;19.160;2024-03-07T10:05:32;99088.34;;;16.59;49.58
66857;BME280;53766;50.280;19.160;2024-03-07T10:08:01;99095.50;;;16.58;49.56
66857;BME280;53766;50.280;19.160;2024-03-07T10:10:29;99096.50;;;16.57;49.37
66857;BME280;53766;50.280;19.160;2024-03-07T10:12:59;99096.50;;;16.57;49.50
66857;BME280;53766;50.280;19.160;2024-03-07T10:15:32;99092.00;;;16.58;49.48
66857;BME280;53766;50.280;19.160;2024-03-07T10:18:20;99092.00;;;16.58;49.51
66857;BME280;53766;50.280;19.160;2024-03-07T10:20:53;99095.66;;;16.57;49.62
66857;BME280;53766;50.280;19.160;2024-03-07T10:23:22;99101.81;;;16.57;49.47
66857;BME280;53766;50.280;19.160;2024-03-07T10:25:50;99090.34;;;16.57;49.58
66857;BME280;53766;50.280;19.160;2024-03-07T10:28:18;99092.81;;;16.58;49.67
66857;BME280;53766;50.280;19.160;2024-03-07T10:30:48;99098.97;;;16.59;49.68
66857;BME280;53766;50.280;19.160;2024-03-07T10:33:18;99093.66;;;16.59;49.72
66857;BME280;53766;50.280;19.160;2024-03-07T10:35:47;99095.31;;;16.60;49.76
66857;BME280;53766;50.280;19.160;2024-03-07T10:38:17;99091.84;;;16.59;49.86
66857;BME280;53766;50.280;19.160;2024-03-07T10:40:47;99096.97;;;16.61;49.71
66857;BME280;53766;50.280;19.160;2024-03-07T10:43:20;99102.28;;;16.61;49.94
66857;BME280;53766;50.280;19.160;2024-03-07T10:45:48;99100.47;;;16.61;49.89
66857;BME280;53766;50.280;19.160;2024-03-07T10:48:20;99098.81;;;16.60;50.00
66857;BME280;53766;50.280;19.160;2024-03-07T10:57:04;99100.28;;;16.63;50.35
66857;BME280;53766;50.280;19.160;2024-03-07T10:59:38;99094.97;;;16.63;50.29
66857;BME280;53766;50.280;19.160;2024-03-07T11:02:33;99094.97;;;16.63;50.33
66857;BME280;53766;50.280;19.160;2024-03-07T11:05:06;99096.63;;;16.64;50.30
66857;BME280;53766;50.280;19.160;2024-03-07T11:07:39;99093.13;;;16.63;50.32
66857;BME280;53766;50.280;19.160;2024-03-07T11:10:08;99096.63;;;16.64;50.18
66857;BME280;53766;50.280;19.160;2024-03-07T11:12:40;99089.63;;;16.63;50.36
66857;BME280;53766;50.280;19.160;2024-03-07T11:15:11;99094.97;;;16.63;50.51
66857;BME280;53766;50.280;19.160;2024-03-07T11:17:43;99092.50;;;16.61;50.46
66857;BME280;53766;50.280;19.160;2024-03-07T11:20:22;99101.09;;;16.63;50.37
66857;BME280;53766;50.280;19.160;2024-03-07T11:22:51;99095.78;;;16.63;50.32
66857;BME280;53766;50.280;19.160;2024-03-07T11:25:22;99086.97;;;16.63;50.45
66857;BME280;53766;50.280;19.160;2024-03-07T11:28:00;99089.63;;;16.63;50.43
66857;BME280;53766;50.280;19.160;2024-03-07T11:30:29;99089.63;;;16.63;50.47
66857;BME280;53766;50.280;19.160;2024-03-07T11:32:56;99096.63;;;16.64;50.48
66857;BME280;53766;50.280;19.160;2024-03-07T11:35:32;99088.00;;;16.62;50.44
66857;BME280;53766;50.280;19.160;2024-03-07T11:38:06;99089.63;;;16.63;50.30
66857;BME280;53766;50.280;19.160;2024-03-07T11:43:06;99093.31;;;16.62;50.32
66857;BME280;53766;50.280;19.160;2024-03-07T11:45:34;99084.53;;;16.61;50.27
66857;BME280;53766;50.280;19.160;2024-03-07T11:48:06;99085.34;;;16.62;50.38
66857;BME280;53766;50.280;19.160;2024-03-07T11:50:41;99078.19;;;16.62;50.31
66857;BME280;53766;50.280;19.160;2024-03-07T11:53:09;99075.69;;;16.61;50.24
66857;BME280;53766;50.280;19.160;2024-03-07T11:55:39;99081.84;;;16.61;50.36
66857;BME280;53766;50.280;19.160;2024-03-07T11:58:21;99065.91;;;16.61;50.28
66857;BME280;53766;50.280;19.160;2024-03-07T12:00:51;99076.53;;;16.61;50.26
66857;BME280;53766;50.280;19.160;2024-03-07T12:03:20;99066.72;;;16.62;50.17
66857;BME280;53766;50.280;19.160;2024-03-07T12:05:53;99073.03;;;16.61;50.28
66857;BME280;53766;50.280;19.160;2024-03-07T12:08:22;99071.22;;;16.61;50.25
66857;BME280;53766;50.280;19.160;2024-03-07T12:10:52;99079.38;;;16.60;50.33
66857;BME280;53766;50.280;19.160;2024-03-07T12:13:26;99076.72;;;16.60;50.09
66857;BME280;53766;50.280;19.160;2024-03-07T12:15:55;99065.25;;;16.59;50.21
66857;BME280;53766;50.280;19.160;2024-03-07T12:18:26;99073.22;;;16.59;50.19
66857;BME280;53766;50.280;19.160;2024-03-07T12:20:55;99073.22;;;16.59;50.14
66857;BME280;53766;50.280;19.160;2024-03-07T12:23:25;99078.72;;;16.58;50.16
66857;BME280;53766;50.280;19.160;2024-03-07T12:25:59;99072.38;;;16.59;50.00
66857;BME280;53766;50.280;19.160;2024-03-07T12:28:29;99076.06;;;16.58;49.96
66857;BME280;53766;50.280;19.160;2024-03-07T12:31:02;99073.41;;;16.58;50.04
66857;BME280;53766;50.280;19.160;2024-03-07T12:33:31;99076.06;;;16.58;50.09
66857;BME280;53766;50.280;19.160;2024-03-07T12:36:07;99074.22;;;16.58;50.05
66857;BME280;53766;50.280;19.160;2024-03-07T12:38:36;99076.06;;;16.58;49.86
66857;BME280;53766;50.280;19.160;2024-03-07T12:41:07;99075.41;;;16.56;49.98
66857;BME280;53766;50.280;19.160;2024-03-07T12:43:36;99078.88;;;16.56;50.00
66857;BME280;53766;50.280;19.160;2024-03-07T12:46:05;99072.75;;;16.56;50.23
66857;BME280;53766;50.280;19.160;2024-03-07T12:48:33;99074.38;;;16.57;50.00
66857;BME280;53766;50.280;19.160;2024-03-07T12:51:00;99078.06;;;16.56;49.98
66857;BME280;53766;50.280;19.160;2024-03-07T12:53:29;99079.69;;;16.57;49.94
66857;BME280;53766;50.280;19.160;2024-03-07T12:55:57;99081.72;;;16.55;49.92
66857;BME280;53766;50.280;19.160;2024-03-07T12:58:25;99078.88;;;16.56;50.00
66857;BME280;53766;50.280;19.160;2024-03-07T13:00:54;99081.72;;;16.55;49.99
66857;BME280;53766;50.280;19.160;2024-03-07T13:03:25;99080.88;;;16.54;50.09
66857;BME280;53766;50.280;19.160;2024-03-07T13:05:58;99078.44;;;16.53;49.86
66857;BME280;53766;50.280;19.160;2024-03-07T13:08:29;99087.22;;;16.53;49.95
66857;BME280;53766;50.280;19.160;2024-03-07T13:10:58;99078.44;;;16.53;49.94